JUNEAU LIBRARY AK US NWS current weather conditions

sailwx.info

Wind from 150 at 1 knots gusting 6

Air temperature 2.6° C
Dewpoint 2.3° C

Last reported at 2020-Oct-30 16:04 UTC.
Time now 2020-Oct-30 16:42 UTC

Location: N 58°18' W 134°24'.
View on Google Maps.

See reports from other nearby stations

  
Tides and Currents Weather Stations Pressure Air Temp Water Temp Dewpoint Dewpoint Depression Visibility Wind Speed Wind Dir Waves Ship Positions
date/time (UTC)wind fromknots sea level pressurealtimeterstation pressurevisibilityair tempwater tempwave heightnotes
2020-Oct-30 16:04 150 1 gusting 6 2.6
2020-Oct-30 15:54 110 1 gusting 4 2.6
2020-Oct-30 15:44 090 1 gusting 4 2.5
2020-Oct-30 15:34 080 0 gusting 2 2.6
2020-Oct-30 15:24 060 0 gusting 2 2.5
2020-Oct-30 15:14 100 1 gusting 5 2.4
2020-Oct-30 15:04 110 1 gusting 5 2.5
2020-Oct-30 14:55 090 2 gusting 6 2.4
2020-Oct-30 14:45 150 2 gusting 7 2.5
2020-Oct-30 14:34 100 2 gusting 6 2.4
2020-Oct-30 14:24 100 1 gusting 5 2.4
2020-Oct-30 14:14 120 1 gusting 5 2.3
2020-Oct-30 14:04 110 1 gusting 4 2.3
2020-Oct-30 13:54 130 2 gusting 6 2.3
2020-Oct-30 13:44 140 1 gusting 5 2.4
2020-Oct-30 13:34 140 1 gusting 4 2.3
2020-Oct-30 13:24 110 1 gusting 4 2.2
2020-Oct-30 13:15 120 0 gusting 1 2.2
2020-Oct-30 13:04 110 0 gusting 2 2.3
2020-Oct-30 12:55 2.3
2020-Oct-30 12:44 2.3
2020-Oct-30 12:34 150 0 gusting 1 2.3
2020-Oct-30 12:24 2.3
2020-Oct-30 12:14 2.2
2020-Oct-30 12:04 2.2
2020-Oct-30 11:54 2.2
2020-Oct-30 11:44 020 0 gusting 2 2.1
2020-Oct-30 11:34 310 0 gusting 2 2.0
2020-Oct-30 11:24 350 0 gusting 2 2.1
2020-Oct-30 11:14 330 0 gusting 5 2.1
2020-Oct-30 11:04 330 1 gusting 6 2.0
2020-Oct-30 10:54 330 1 gusting 4 1.7
2020-Oct-30 10:44 330 1 gusting 2 1.6
2020-Oct-30 10:34 330 1 gusting 2 1.5
2020-Oct-30 10:24 320 0 gusting 2 1.4
2020-Oct-30 10:14 330 0 gusting 2 1.5
2020-Oct-30 10:04 280 4 gusting 7 1.5
2020-Oct-30 09:54 270 5 gusting 8 1.4
2020-Oct-30 09:44 260 2 gusting 7 1.2
2020-Oct-30 09:34 190 0 gusting 2 0.9
2020-Oct-30 09:24 330 0 gusting 2 0.7
2020-Oct-30 09:14 050 0 gusting 1 0.9
2020-Oct-30 09:04 090 1 gusting 4 0.9
2020-Oct-30 08:54 290 1 gusting 4 0.9
2020-Oct-30 08:44 280 1 gusting 6 1.0
2020-Oct-30 08:34 350 0 gusting 2 0.8
2020-Oct-30 08:24 090 0 gusting 2 0.9
2020-Oct-30 08:14 340 0 gusting 2 1.0
2020-Oct-30 08:06 300 1 gusting 6 1.0
2020-Oct-30 07:54 300 2 gusting 6 1.0
2020-Oct-30 07:44 280 1 gusting 4 1.0
2020-Oct-30 07:35 1.0
2020-Oct-30 07:24 330 0 gusting 5 1.1
2020-Oct-30 07:14 320 1 gusting 6 1.3
2020-Oct-30 07:04 320 2 gusting 7 1.3
2020-Oct-30 06:54 320 2 gusting 6 1.3
2020-Oct-30 06:44 320 1 gusting 6 1.4
2020-Oct-30 06:34 320 2 gusting 6 1.5
2020-Oct-30 06:24 300 1 gusting 4 1.5
2020-Oct-30 06:14 320 1 gusting 6 1.7
2020-Oct-30 06:04 330 1 gusting 5 1.6
2020-Oct-30 05:54 330 1 gusting 4 1.6
2020-Oct-30 05:44 320 1 gusting 6 1.7
2020-Oct-30 05:34 320 1 gusting 5 1.8
2020-Oct-30 05:24 320 1 gusting 5 1.8
2020-Oct-30 05:14 350 0 gusting 4 2.0
2020-Oct-30 05:04 340 2 gusting 6 1.9
2020-Oct-30 04:54 340 2 gusting 5 1.9
2020-Oct-30 04:44 320 0 gusting 4 2.0
2020-Oct-30 04:34 2.2
2020-Oct-30 04:24 2.2
2020-Oct-30 04:14 2.2
2020-Oct-30 04:04 2.3
2020-Oct-30 03:54 2.4
2020-Oct-30 03:44 350 0 gusting 1 2.3
2020-Oct-30 03:34 320 0 gusting 4 2.3
2020-Oct-30 03:25 2.3
2020-Oct-30 03:14 2.4
2020-Oct-30 03:04 2.6
2020-Oct-30 02:55 2.7
2020-Oct-30 02:45 2.8
2020-Oct-30 02:35 3.0
2020-Oct-30 02:24 3.2
2020-Oct-30 02:14 3.4
2020-Oct-30 02:04 3.7
2020-Oct-30 01:54 4.0
2020-Oct-30 01:44 4.2
2020-Oct-30 01:34 280 0 gusting 2 4.4
2020-Oct-30 01:24 4.6
2020-Oct-30 01:14 010 0 gusting 1 4.8
2020-Oct-30 01:04 5.0
2020-Oct-30 00:54 260 1 gusting 1 5.1
2020-Oct-30 00:44 240 0 gusting 2 5.3
2020-Oct-30 00:35 5.4
2020-Oct-30 00:24 140 1 gusting 5 5.4
2020-Oct-30 00:14 150 1 gusting 5 5.6
2020-Oct-29 23:55 090 1 gusting 2 6.0
2020-Oct-29 23:45 110 0 gusting 2 5.9
2020-Oct-29 23:34 100 1 gusting 2 5.8
2020-Oct-29 23:24 100 1 gusting 2 5.8
2020-Oct-29 23:14 110 1 gusting 2 5.8
2020-Oct-29 23:04 140 1 gusting 5 5.8
2020-Oct-29 22:54 160 2 gusting 5 5.9
2020-Oct-29 22:44 160 1 gusting 2 6.2
2020-Oct-29 22:34 160 1 gusting 2 6.2
2020-Oct-29 22:24 140 1 gusting 2 6.2
2020-Oct-29 22:14 160 1 gusting 2 6.3
2020-Oct-29 22:04 6.4
2020-Oct-29 21:54 200 0 gusting 1 6.1
2020-Oct-29 21:44 5.9
2020-Oct-29 21:34 140 1 gusting 5 5.5
2020-Oct-29 21:24 200 1 gusting 6 5.6
2020-Oct-29 21:14 170 1 gusting 4 5.6
2020-Oct-29 21:04 150 1 gusting 5 5.5
2020-Oct-29 20:55 160 2 gusting 5 5.3
2020-Oct-29 20:44 160 2 gusting 6 5.3
2020-Oct-29 20:34 140 1 gusting 5 5.4
2020-Oct-29 20:24 140 1 gusting 5 5.4
2020-Oct-29 20:14 120 1 gusting 6 5.3
2020-Oct-29 20:04 150 4 gusting 6 5.2
2020-Oct-29 19:54 140 2 gusting 6 5.2
2020-Oct-29 19:44 170 2 gusting 6 5.2
2020-Oct-29 19:34 200 2 gusting 6 5.3
2020-Oct-29 19:24 140 4 gusting 11 5.4
2020-Oct-29 19:14 130 5 gusting 12 5.5
2020-Oct-29 19:04 130 5 gusting 12 5.7
2020-Oct-29 18:54 130 4 gusting 11 5.6
2020-Oct-29 18:44 120 4 gusting 12 5.5
2020-Oct-29 18:34 130 4 gusting 8 5.5
2020-Oct-29 18:24 120 4 gusting 8 5.5
2020-Oct-29 18:14 100 1 gusting 9 5.4
2020-Oct-29 18:04 020 1 gusting 5 5.3
2020-Oct-29 17:55 170 1 gusting 5 5.2
2020-Oct-29 17:44 150 0 gusting 4 5.2
2020-Oct-29 17:34 100 1 gusting 6 5.0
2020-Oct-29 17:24 110 1 gusting 5 4.9
2020-Oct-29 17:14 130 2 gusting 6 4.9
2020-Oct-29 17:04 070 0 gusting 2 4.9
2020-Oct-29 16:54 110 1 gusting 4 5.0
2020-Oct-29 16:44 110 1 gusting 5 4.9
2020-Oct-29 16:34 170 1 gusting 4 4.9
2020-Oct-29 16:24 280 0 gusting 4 4.9
2020-Oct-29 16:14 130 1 gusting 5 4.9
2020-Oct-29 16:04 140 1 gusting 5 4.9
2020-Oct-29 15:55 130 0 gusting 4 5.0
2020-Oct-29 15:44 100 1 gusting 5 4.9
2020-Oct-29 15:34 140 1 gusting 5 4.9
2020-Oct-29 15:24 010 1 gusting 5 5.0
2020-Oct-29 15:14 140 1 gusting 4 5.0
2020-Oct-29 15:04 120 1 gusting 6 5.0
2020-Oct-29 14:55 130 1 gusting 6 5.3
2020-Oct-29 14:44 110 2 gusting 6 5.2
2020-Oct-29 14:34 110 4 gusting 9 5.1
2020-Oct-29 14:24 120 2 gusting 7 5.2
2020-Oct-29 14:14 110 4 gusting 9 5.3
2020-Oct-29 14:04 100 5 gusting 9 5.3
2020-Oct-29 13:54 110 4 gusting 9 5.3
2020-Oct-29 13:44 100 5 gusting 11 5.3
2020-Oct-29 13:34 090 4 gusting 8 5.3
2020-Oct-29 13:24 110 2 gusting 6 5.2
2020-Oct-29 13:14 110 4 gusting 9 5.3
2020-Oct-29 13:04 110 4 gusting 8 5.2
2020-Oct-29 12:54 110 5 gusting 12 5.3
2020-Oct-29 12:44 110 2 gusting 7 5.3
2020-Oct-29 12:34 120 4 gusting 8 5.3
2020-Oct-29 12:24 110 4 gusting 8 5.3
2020-Oct-29 12:14 110 4 gusting 8 5.3
2020-Oct-29 12:04 110 4 gusting 9 5.4
2020-Oct-29 11:54 110 4 gusting 8 5.5
2020-Oct-29 11:44 120 4 gusting 7 5.5
2020-Oct-29 11:34 110 4 gusting 8 5.5
2020-Oct-29 11:24 110 4 gusting 8 5.5
2020-Oct-29 11:14 120 1 gusting 8 5.5
2020-Oct-29 11:04 110 4 gusting 7 5.4
2020-Oct-29 10:54 080 1 gusting 6 5.3
2020-Oct-29 10:44 090 2 gusting 5 5.2
2020-Oct-29 10:34 030 1 gusting 5 5.1
2020-Oct-29 10:24 010 1 gusting 4 5.1
2020-Oct-29 10:14 100 1 gusting 5 5.1
2020-Oct-29 10:04 130 1 gusting 6 5.1
2020-Oct-29 09:54 110 2 gusting 6 5.2
2020-Oct-29 09:44 100 2 gusting 6 5.3
2020-Oct-29 09:34 090 2 gusting 6 5.3
2020-Oct-29 09:24 090 1 gusting 4 5.3
2020-Oct-29 09:14 290 0 gusting 2 5.3
2020-Oct-29 09:04 340 1 gusting 4 5.2
2020-Oct-29 08:54 010 1 gusting 5 5.1
2020-Oct-29 08:44 010 0 gusting 2 5.1
2020-Oct-29 08:34 090 2 gusting 6 5.1
2020-Oct-29 08:24 050 1 gusting 4 5.0
2020-Oct-29 08:15 350 0 gusting 2 5.0
2020-Oct-29 08:04 050 1 gusting 2 5.0
2020-Oct-29 07:54 100 2 gusting 6 4.8
2020-Oct-29 07:44 110 2 gusting 5 4.8
2020-Oct-29 07:34 100 2 gusting 5 4.9
2020-Oct-29 07:24 120 1 gusting 5 4.9
2020-Oct-29 07:15 110 2 gusting 6 4.8
2020-Oct-29 07:04 100 1 gusting 2 4.7
2020-Oct-29 06:54 110 1 gusting 2 4.7
2020-Oct-29 06:44 110 1 gusting 5 4.8
2020-Oct-29 06:34 4.9
2020-Oct-29 06:24 4.8
2020-Oct-29 06:14 090 0 gusting 2 4.8
2020-Oct-29 06:04 4.9
2020-Oct-29 05:54 080 0 gusting 1 4.8
2020-Oct-29 05:44 110 1 gusting 4 4.8
2020-Oct-29 05:35 110 0 gusting 2 4.8
2020-Oct-29 05:24 4.9
2020-Oct-29 05:14 100 1 gusting 2 5.0
2020-Oct-29 05:04 5.1
2020-Oct-29 04:54 5.1
2020-Oct-29 04:44 080 1 gusting 2 5.0
2020-Oct-29 04:34 090 0 gusting 1 5.1
2020-Oct-29 04:24 070 1 gusting 2 5.2
2020-Oct-29 04:14 330 0 gusting 2 5.3
2020-Oct-29 04:04 090 1 gusting 2 5.3
2020-Oct-29 03:55 120 0 gusting 1 5.4
2020-Oct-29 03:44 5.5
2020-Oct-29 03:34 5.5
2020-Oct-29 03:24 5.5
2020-Oct-29 03:14 110 0 gusting 2 5.5
2020-Oct-29 03:04 100 1 gusting 2 5.5
2020-Oct-29 02:55 5.6
2020-Oct-29 02:44 5.6
2020-Oct-29 02:34 130 1 gusting 4 5.6
2020-Oct-29 02:24 090 0 gusting 2 5.7
2020-Oct-29 02:14 100 0 gusting 1 5.7
2020-Oct-29 02:04 080 1 gusting 2 5.7
2020-Oct-29 01:54 070 1 gusting 2 5.7
2020-Oct-29 01:44 090 1 gusting 2 5.8
2020-Oct-29 01:35 110 1 gusting 2 5.7
2020-Oct-29 01:24 090 1 gusting 2 5.7
2020-Oct-29 01:14 090 0 gusting 1 5.8
2020-Oct-29 01:04 090 1 gusting 2 5.8
2020-Oct-29 00:54 110 1 gusting 2 5.8
2020-Oct-29 00:44 110 1 gusting 4 5.8
2020-Oct-29 00:34 080 1 gusting 4 5.8
2020-Oct-29 00:24 130 1 gusting 5 5.8
2020-Oct-29 00:14 100 1 gusting 4 5.9
2020-Oct-28 23:54 140 2 gusting 5 6.0
2020-Oct-28 23:44 140 1 gusting 4 6.1
2020-Oct-28 23:34 150 0 gusting 2 6.2
2020-Oct-28 23:24 130 0 gusting 1 6.1
2020-Oct-28 23:14 130 1 gusting 4 5.9
2020-Oct-28 23:04 140 1 gusting 4 5.8
2020-Oct-28 22:54 140 0 gusting 2 5.8
2020-Oct-28 22:44 100 1 gusting 2 5.7
2020-Oct-28 22:34 110 1 gusting 4 5.8
2020-Oct-28 22:24 130 1 gusting 4 5.8
2020-Oct-28 22:15 110 1 gusting 4 5.9
2020-Oct-28 22:04 120 1 gusting 2 6.0
2020-Oct-28 21:54 150 0 gusting 2 5.9
2020-Oct-28 21:44 130 1 gusting 5 5.8
2020-Oct-28 21:34 160 2 gusting 6 5.7
2020-Oct-28 21:24 300 1 gusting 5 5.8
2020-Oct-28 21:14 210 1 gusting 5 5.6
2020-Oct-28 21:04 200 1 gusting 5 5.6
2020-Oct-28 20:54 240 1 gusting 6 5.7
2020-Oct-28 20:44 110 0 gusting 4 5.6
2020-Oct-28 20:34 090 2 gusting 7 5.6
2020-Oct-28 20:24 090 5 gusting 9 5.7
2020-Oct-28 20:14 100 5 gusting 9 5.7
2020-Oct-28 20:04 100 5 gusting 8 5.6
2020-Oct-28 19:54 100 5 gusting 13 5.8
2020-Oct-28 19:45 100 6 gusting 13 6.0
2020-Oct-28 19:34 110 5 gusting 12 6.1
2020-Oct-28 19:24 110 2 gusting 7 6.2
2020-Oct-28 19:14 100 1 gusting 6 6.2
2020-Oct-28 19:04 110 1 gusting 5 6.1
2020-Oct-28 18:54 360 1 gusting 5 6.0
2020-Oct-28 18:44 240 0 gusting 2 6.0
2020-Oct-28 18:34 260 1 gusting 2 6.0
2020-Oct-28 18:25 080 0 gusting 2 6.0
2020-Oct-28 18:14 070 0 gusting 2 5.9
2020-Oct-28 18:04 280 0 gusting 2 5.8
2020-Oct-28 17:55 290 1 gusting 2 5.9
2020-Oct-28 17:44 270 0 gusting 1 5.9
2020-Oct-28 17:35 270 1 gusting 2 5.8
2020-Oct-28 17:24 310 1 gusting 4 5.8
2020-Oct-28 17:14 350 0 gusting 2 5.8
2020-Oct-28 17:05 5.9
2020-Oct-28 16:54 5.8
2020-Oct-28 16:44 220 0 gusting 1 5.7
2020-Oct-28 16:34 360 0 gusting 2 5.7
2020-Oct-28 16:24 5.7
2020-Oct-28 16:14 5.8
2020-Oct-28 16:04 5.8